Time;durP1;ratioP1;P1;durP2;ratioP2;P2;SDS_P1;SDS_P2;PMS_P1;PMS_P2;Temp;Humidity;BMP_temperature;BMP_pressure;BME280_temperature;BME280_humidity;BME280_pressure;Samples;Min_cycle;Max_cycle;Signal;HPM_P1;HPM_P2
2023/07/11 00:00:50;;;;;;;2.10;2.00;;;;;;;;;;5049882;28;20212;-60
2023/07/11 00:03:17;;;;;;;3.15;2.30;;;;;;;;;;5052732;28;20216;-60
2023/07/11 00:05:44;;;;;;;1.83;1.73;;;;;;;;;;5058552;28;20292;-60
2023/07/11 00:08:11;;;;;;;3.22;2.20;;;;;;;;;;5065953;28;20679;-60
2023/07/11 00:10:38;;;;;;;2.42;2.13;;;;;;;;;;5044977;28;20215;-60
2023/07/11 00:13:05;;;;;;;1.75;1.65;;;;;;;;;;5057638;28;20207;-63
2023/07/11 00:15:32;;;;;;;1.80;1.80;;;;;;;;;;5060001;28;20208;-60
2023/07/11 00:18:01;;;;;;;2.45;2.20;;;;;;;;;;5057544;28;20205;-60
2023/07/11 00:20:28;;;;;;;2.17;2.08;;;;;;;;;;5049985;28;20729;-59
2023/07/11 00:22:55;;;;;;;1.98;1.90;;;;;;;;;;5063720;28;20236;-60
2023/07/11 00:25:22;;;;;;;3.28;2.33;;;;;;;;;;5062161;28;20295;-60
2023/07/11 00:27:49;;;;;;;2.15;2.05;;;;;;;;;;5062858;28;20661;-60
2023/07/11 00:30:16;;;;;;;1.95;1.88;;;;;;;;;;5054080;28;20200;-60
2023/07/11 00:32:43;;;;;;;2.30;2.20;;;;;;;;;;5061316;28;20204;-60
2023/07/11 00:35:12;;;;;;;2.25;2.13;;;;;;;;;;5051862;28;20623;-60
2023/07/11 00:37:39;;;;;;;2.70;2.22;;;;;;;;;;5059899;28;20281;-60
2023/07/11 00:40:06;;;;;;;2.75;2.65;;;;;;;;;;5054540;28;20202;-61
2023/07/11 00:42:33;;;;;;;2.38;2.28;;;;;;;;;;5067431;28;20766;-60
2023/07/11 00:45:03;;;;;;;2.20;2.10;;;;;;;;;;5057046;28;20230;-60
2023/07/11 00:47:31;;;;;;;2.58;2.15;;;;;;;;;;5058421;28;20210;-60
2023/07/11 00:50:00;;;;;;;4.72;2.28;;;;;;;;;;5048163;28;20212;-60
2023/07/11 00:52:31;;;;;;;2.30;2.20;;;;;;;;;;5064789;28;20672;-59
2023/07/11 00:54:59;;;;;;;2.67;2.47;;;;;;;;;;5063781;28;22212;-59
2023/07/11 00:57:27;;;;;;;1.90;1.80;;;;;;;;;;5052332;28;20204;-60
2023/07/11 00:59:54;;;;;;;2.60;2.50;;;;;;;;;;5045359;28;20269;-61
2023/07/11 01:02:23;;;;;;;2.10;2.00;;;;;;;;;;5048543;28;20211;-61
2023/07/11 01:04:50;;;;;;;2.63;2.42;;;;;;;;;;5045350;28;20239;-61
2023/07/11 01:07:19;;;;;;;3.40;2.00;;;;;;;;;;5045371;28;20227;-61
2023/07/11 01:09:48;;;;;;;2.00;2.00;;;;;;;;;;5047128;28;20215;-61
2023/07/11 01:12:17;;;;;;;2.03;1.92;;;;;;;;;;5047168;28;20250;-61
2023/07/11 01:14:45;;;;;;;4.72;2.55;;;;;;;;;;5047411;28;20214;-61
2023/07/11 01:17:22;;;;;;;2.47;2.35;;;;;;;;;;5051527;28;20215;-61
2023/07/11 01:19:49;;;;;;;2.35;2.25;;;;;;;;;;5047302;28;20207;-61
2023/07/11 01:22:18;;;;;;;2.17;2.08;;;;;;;;;;5046672;28;20517;-61
2023/07/11 01:24:45;;;;;;;3.90;2.55;;;;;;;;;;5061347;28;20665;-61
2023/07/11 01:27:12;;;;;;;1.80;1.80;;;;;;;;;;5063683;28;20219;-61
2023/07/11 01:29:41;;;;;;;1.88;1.83;;;;;;;;;;5062821;28;20206;-61
2023/07/11 01:32:08;;;;;;;2.22;2.13;;;;;;;;;;5047610;28;20221;-61
2023/07/11 01:34:35;;;;;;;2.28;2.08;;;;;;;;;;5055649;28;20204;-61
2023/07/11 01:37:02;;;;;;;2.20;2.10;;;;;;;;;;5052127;28;20203;-61
2023/07/11 01:39:31;;;;;;;2.67;2.50;;;;;;;;;;5054807;28;20207;-61
2023/07/11 01:41:58;;;;;;;2.42;2.22;;;;;;;;;;5058508;28;20257;-61
2023/07/11 01:44:25;;;;;;;2.28;2.17;;;;;;;;;;5052422;28;20669;-62
2023/07/11 01:46:52;;;;;;;2.50;2.30;;;;;;;;;;5064273;28;20227;-61
2023/07/11 01:49:19;;;;;;;2.55;2.35;;;;;;;;;;5050282;28;20208;-61
2023/07/11 01:51:46;;;;;;;2.28;2.15;;;;;;;;;;5049083;28;20219;-61
2023/07/11 01:54:13;;;;;;;2.20;2.10;;;;;;;;;;5052313;28;20210;-61
2023/07/11 01:56:42;;;;;;;2.50;2.20;;;;;;;;;;5060285;28;20192;-61
2023/07/11 01:59:09;;;;;;;3.17;2.50;;;;;;;;;;5055650;28;20231;-61
2023/07/11 02:01:36;;;;;;;2.15;2.05;;;;;;;;;;5057729;28;20218;-61
2023/07/11 02:04:03;;;;;;;3.08;2.28;;;;;;;;;;5051718;28;20211;-60
2023/07/11 02:06:30;;;;;;;2.35;2.25;;;;;;;;;;5066237;28;20238;-60
2023/07/11 02:08:57;;;;;;;2.75;2.35;;;;;;;;;;5047642;28;20211;-60
2023/07/11 02:11:24;;;;;;;2.15;2.05;;;;;;;;;;5057124;28;20560;-61
2023/07/11 02:13:52;;;;;;;1.90;1.88;;;;;;;;;;5047575;28;20211;-61
2023/07/11 02:16:19;;;;;;;2.50;2.40;;;;;;;;;;5066981;28;20195;-61
2023/07/11 02:18:46;;;;;;;2.42;2.30;;;;;;;;;;5054252;28;20199;-61
2023/07/11 02:21:13;;;;;;;2.15;2.05;;;;;;;;;;5063077;28;20219;-61
2023/07/11 02:23:40;;;;;;;2.75;2.05;;;;;;;;;;5068139;28;20574;-61
2023/07/11 02:26:07;;;;;;;2.50;2.38;;;;;;;;;;5069705;28;20234;-61
2023/07/11 02:28:34;;;;;;;2.15;2.05;;;;;;;;;;5067018;28;20206;-61
2023/07/11 02:31:03;;;;;;;2.15;2.05;;;;;;;;;;5068496;28;20817;-61
2023/07/11 02:33:30;;;;;;;2.60;2.50;;;;;;;;;;5053664;28;20211;-61
2023/07/11 02:35:57;;;;;;;2.33;2.25;;;;;;;;;;5058644;28;20302;-61
2023/07/11 02:38:24;;;;;;;2.78;2.05;;;;;;;;;;5067327;28;20634;-61
2023/07/11 02:40:51;;;;;;;2.50;2.35;;;;;;;;;;5050741;28;20923;-61
2023/07/11 02:43:19;;;;;;;2.25;2.05;;;;;;;;;;5062248;28;20230;-61
2023/07/11 02:45:47;;;;;;;2.33;2.22;;;;;;;;;;5062641;28;20204;-61
2023/07/11 02:48:16;;;;;;;2.17;2.13;;;;;;;;;;5060227;28;20199;-61
2023/07/11 02:50:43;;;;;;;2.00;1.90;;;;;;;;;;5069731;28;20280;-62
2023/07/11 02:53:10;;;;;;;2.25;1.98;;;;;;;;;;5053568;28;20219;-61
2023/07/11 02:55:40;;;;;;;2.17;2.08;;;;;;;;;;5054923;28;20223;-61
2023/07/11 02:58:07;;;;;;;1.92;1.88;;;;;;;;;;5057345;28;20607;-61
2023/07/11 03:00:34;;;;;;;2.10;2.00;;;;;;;;;;5068983;28;20665;-61
2023/07/11 03:03:01;;;;;;;2.10;2.00;;;;;;;;;;5067696;28;20571;-62
2023/07/11 03:05:29;;;;;;;2.42;2.33;;;;;;;;;;5068697;28;20620;-60
2023/07/11 03:07:56;;;;;;;3.17;2.05;;;;;;;;;;5054616;28;20223;-61
2023/07/11 03:10:23;;;;;;;2.47;2.17;;;;;;;;;;5064753;28;20207;-60
2023/07/11 03:12:50;;;;;;;2.10;2.00;;;;;;;;;;5055154;28;20268;-61
2023/07/11 03:15:17;;;;;;;2.17;2.05;;;;;;;;;;5061305;28;20628;-62
2023/07/11 03:17:44;;;;;;;2.42;2.33;;;;;;;;;;5050462;28;20268;-60
2023/07/11 03:20:12;;;;;;;1.83;1.73;;;;;;;;;;5063410;28;20724;-60
2023/07/11 03:22:40;;;;;;;2.15;2.05;;;;;;;;;;5050551;28;20746;-60
2023/07/11 03:25:08;;;;;;;2.42;2.20;;;;;;;;;;5060670;28;20212;-60
2023/07/11 03:27:35;;;;;;;3.15;2.33;;;;;;;;;;5066632;28;20222;-60
2023/07/11 03:30:02;;;;;;;2.13;2.03;;;;;;;;;;5054167;28;20211;-60
2023/07/11 03:32:29;;;;;;;1.77;1.65;;;;;;;;;;5052018;28;20212;-60
2023/07/11 03:34:56;;;;;;;3.25;2.28;;;;;;;;;;5055934;28;20203;-60
2023/07/11 03:37:23;;;;;;;2.30;2.20;;;;;;;;;;5047068;28;20206;-60
2023/07/11 03:39:51;;;;;;;2.38;2.17;;;;;;;;;;5049852;28;20313;-60
2023/07/11 03:42:18;;;;;;;2.30;2.17;;;;;;;;;;5048871;28;20301;-60
2023/07/11 03:44:45;;;;;;;2.50;2.33;;;;;;;;;;5069086;28;20211;-60
2023/07/11 03:47:12;;;;;;;2.17;2.08;;;;;;;;;;5062840;28;20288;-60
2023/07/11 03:49:39;;;;;;;1.88;1.88;;;;;;;;;;5066874;28;20260;-60
2023/07/11 03:52:07;;;;;;;3.00;2.00;;;;;;;;;;5053747;28;20665;-60
2023/07/11 03:54:34;;;;;;;2.33;2.22;;;;;;;;;;5061509;28;20214;-60
2023/07/11 03:57:02;;;;;;;2.53;2.30;;;;;;;;;;5049403;28;20196;-60
2023/07/11 03:59:30;;;;;;;2.25;2.08;;;;;;;;;;5062256;28;20210;-60
2023/07/11 04:01:58;;;;;;;2.00;1.98;;;;;;;;;;5050252;28;20290;-59
2023/07/11 04:04:25;;;;;;;2.05;1.98;;;;;;;;;;5060446;28;20208;-60
2023/07/11 04:06:52;;;;;;;2.33;2.13;;;;;;;;;;5068324;28;20223;-60
2023/07/11 04:09:19;;;;;;;2.15;2.00;;;;;;;;;;5066947;28;20582;-60
2023/07/11 04:11:46;;;;;;;2.47;2.08;;;;;;;;;;5053200;28;20200;-62
2023/07/11 04:14:14;;;;;;;2.08;1.98;;;;;;;;;;5048592;28;20208;-60
2023/07/11 04:16:41;;;;;;;2.25;2.15;;;;;;;;;;5058901;28;20313;-60
2023/07/11 04:19:08;;;;;;;2.22;2.13;;;;;;;;;;5065384;28;20199;-60
2023/07/11 04:21:36;;;;;;;1.92;1.83;;;;;;;;;;5067895;28;20252;-60
2023/07/11 04:24:03;;;;;;;1.90;1.80;;;;;;;;;;5060626;28;20396;-60
2023/07/11 04:26:30;;;;;;;1.73;1.73;;;;;;;;;;5048829;28;20281;-59
2023/07/11 04:28:57;;;;;;;2.33;2.20;;;;;;;;;;5049115;28;20227;-60
2023/07/11 04:31:26;;;;;;;2.13;2.10;;;;;;;;;;5050603;28;20883;-59
2023/07/11 04:33:54;;;;;;;2.22;2.13;;;;;;;;;;5068039;28;20217;-60
2023/07/11 04:36:21;;;;;;;3.30;2.40;;;;;;;;;;5068158;28;20211;-60
2023/07/11 04:38:48;;;;;;;2.05;1.85;;;;;;;;;;5049306;28;20204;-61
2023/07/11 04:41:15;;;;;;;2.15;2.05;;;;;;;;;;5055913;28;20306;-59
2023/07/11 04:43:42;;;;;;;3.30;2.38;;;;;;;;;;5047518;28;20231;-60
2023/07/11 04:46:09;;;;;;;2.40;2.30;;;;;;;;;;5053049;28;20750;-67
2023/07/11 04:48:38;;;;;;;2.92;2.78;;;;;;;;;;5063230;28;20207;-64
2023/07/11 04:51:06;;;;;;;2.38;2.17;;;;;;;;;;5061948;28;20211;-62
2023/07/11 04:53:34;;;;;;;2.97;2.50;;;;;;;;;;5046455;28;20215;-65
2023/07/11 04:56:02;;;;;;;2.17;2.08;;;;;;;;;;5047892;28;20203;-62
2023/07/11 04:58:29;;;;;;;2.42;2.22;;;;;;;;;;5051085;28;20218;-62
2023/07/11 05:01:00;;;;;;;2.50;2.30;;;;;;;;;;5056015;28;20202;-63
2023/07/11 05:03:27;;;;;;;2.60;2.40;;;;;;;;;;5059359;28;20286;-63
2023/07/11 05:05:55;;;;;;;3.15;2.85;;;;;;;;;;5056752;28;20250;-63
2023/07/11 05:08:23;;;;;;;2.80;2.45;;;;;;;;;;5049906;28;20294;-63
2023/07/11 05:10:52;;;;;;;2.38;2.25;;;;;;;;;;5054281;28;20203;-63
2023/07/11 05:13:20;;;;;;;3.10;2.83;;;;;;;;;;5066963;28;20297;-63
2023/07/11 05:15:47;;;;;;;3.08;2.88;;;;;;;;;;5047501;28;20200;-63
2023/07/11 05:18:14;;;;;;;3.20;3.00;;;;;;;;;;5058268;28;20195;-63
2023/07/11 05:20:41;;;;;;;3.13;2.88;;;;;;;;;;5047635;28;20215;-63
2023/07/11 05:23:09;;;;;;;3.35;3.15;;;;;;;;;;5047520;28;20207;-63
2023/07/11 05:25:38;;;;;;;3.83;3.50;;;;;;;;;;5049250;28;20222;-63
2023/07/11 05:28:05;;;;;;;3.65;3.38;;;;;;;;;;5050805;28;20247;-62
2023/07/11 05:30:32;;;;;;;3.35;3.15;;;;;;;;;;5055211;28;20674;-59
2023/07/11 05:32:59;;;;;;;3.70;3.40;;;;;;;;;;5066064;28;20248;-61
2023/07/11 05:35:26;;;;;;;3.50;3.20;;;;;;;;;;5057331;28;20215;-60
2023/07/11 05:37:53;;;;;;;3.40;3.20;;;;;;;;;;5064278;28;20210;-62
2023/07/11 05:40:21;;;;;;;3.15;2.85;;;;;;;;;;5063728;28;20317;-63
2023/07/11 05:42:48;;;;;;;2.92;2.83;;;;;;;;;;5057411;28;20234;-61
2023/07/11 05:45:16;;;;;;;3.33;3.00;;;;;;;;;;5050908;28;20200;-61
2023/07/11 05:47:46;;;;;;;3.47;3.28;;;;;;;;;;5060585;28;20234;-61
2023/07/11 05:50:13;;;;;;;3.05;2.80;;;;;;;;;;5062635;28;20203;-61
2023/07/11 05:52:40;;;;;;;5.25;2.92;;;;;;;;;;5070362;28;20665;-60
2023/07/11 05:55:08;;;;;;;3.33;3.10;;;;;;;;;;5068476;28;20210;-61
2023/07/11 05:57:36;;;;;;;3.35;3.03;;;;;;;;;;5070126;28;20214;-61
2023/07/11 06:00:04;;;;;;;3.03;2.88;;;;;;;;;;5070096;28;20207;-61
2023/07/11 06:02:32;;;;;;;3.40;2.60;;;;;;;;;;5070086;28;20222;-61
2023/07/11 06:04:59;;;;;;;3.67;3.38;;;;;;;;;;5069852;28;20253;-61
2023/07/11 06:07:27;;;;;;;3.63;3.10;;;;;;;;;;5069765;28;20239;-61
2023/07/11 06:09:55;;;;;;;3.55;3.30;;;;;;;;;;5069120;28;20239;-61
2023/07/11 06:12:22;;;;;;;6.53;3.22;;;;;;;;;;5069773;28;20214;-61
2023/07/11 06:14:51;;;;;;;3.33;3.15;;;;;;;;;;5069998;28;20207;-61
2023/07/11 06:17:18;;;;;;;3.10;2.90;;;;;;;;;;5069792;28;20557;-61
2023/07/11 06:19:45;;;;;;;2.90;2.70;;;;;;;;;;5069477;28;20420;-60
2023/07/11 06:22:12;;;;;;;2.88;2.78;;;;;;;;;;5068686;28;20229;-60
2023/07/11 06:24:39;;;;;;;2.35;2.22;;;;;;;;;;5069287;28;20704;-60
2023/07/11 06:27:06;;;;;;;2.83;2.60;;;;;;;;;;5069321;28;20241;-60
2023/07/11 06:29:33;;;;;;;3.40;3.10;;;;;;;;;;5069540;28;20606;-60
2023/07/11 06:32:02;;;;;;;3.10;2.90;;;;;;;;;;5069414;28;20210;-60
2023/07/11 06:34:29;;;;;;;10.65;2.75;;;;;;;;;;5069278;28;20203;-62
2023/07/11 06:36:57;;;;;;;4.03;2.58;;;;;;;;;;5069432;28;20218;-62
2023/07/11 06:39:25;;;;;;;3.33;2.97;;;;;;;;;;5069369;28;20218;-61
2023/07/11 06:41:52;;;;;;;3.15;2.95;;;;;;;;;;5068587;28;20203;-61
2023/07/11 06:44:19;;;;;;;2.97;2.78;;;;;;;;;;5069281;28;20264;-61
2023/07/11 06:46:46;;;;;;;3.03;2.70;;;;;;;;;;5069043;28;20217;-61
2023/07/11 06:49:14;;;;;;;2.70;2.60;;;;;;;;;;5069089;28;20238;-61
2023/07/11 06:51:41;;;;;;;2.97;2.78;;;;;;;;;;5068873;28;20583;-61
2023/07/11 06:54:08;;;;;;;2.50;2.40;;;;;;;;;;5068730;28;20215;-61
2023/07/11 06:56:35;;;;;;;2.95;2.70;;;;;;;;;;5068318;28;20215;-61
2023/07/11 06:59:03;;;;;;;3.20;2.95;;;;;;;;;;5068568;28;20457;-61
2023/07/11 07:01:30;;;;;;;3.55;3.10;;;;;;;;;;5068716;28;20212;-61
2023/07/11 07:03:57;;;;;;;2.78;2.60;;;;;;;;;;5068310;28;20210;-61
2023/07/11 07:06:25;;;;;;;2.72;2.63;;;;;;;;;;5069408;28;20242;-61
2023/07/11 07:08:52;;;;;;;3.65;2.90;;;;;;;;;;5068954;28;20582;-61
2023/07/11 07:11:19;;;;;;;3.00;2.80;;;;;;;;;;5069049;28;20203;-61
2023/07/11 07:13:46;;;;;;;2.80;2.60;;;;;;;;;;5068978;28;20439;-61
2023/07/11 07:16:13;;;;;;;2.92;2.72;;;;;;;;;;5068183;28;20699;-61
2023/07/11 07:18:41;;;;;;;2.90;2.78;;;;;;;;;;5068979;28;20560;-61
2023/07/11 07:21:09;;;;;;;2.70;2.60;;;;;;;;;;5068487;28;20207;-61
2023/07/11 07:23:38;;;;;;;2.45;2.35;;;;;;;;;;5067318;28;20579;-62
2023/07/11 07:26:06;;;;;;;2.63;2.42;;;;;;;;;;5068478;28;20207;-61
2023/07/11 07:28:34;;;;;;;5.53;2.65;;;;;;;;;;5048913;28;20235;-61
2023/07/11 07:31:02;;;;;;;2.95;2.70;;;;;;;;;;5049606;28;20919;-61
2023/07/11 07:33:30;;;;;;;2.80;2.70;;;;;;;;;;5048860;28;20253;-60
2023/07/11 07:35:57;;;;;;;2.47;2.38;;;;;;;;;;5062644;28;20272;-60
2023/07/11 07:38:27;;;;;;;3.05;2.85;;;;;;;;;;5048790;28;20208;-61
2023/07/11 07:40:56;;;;;;;2.30;2.20;;;;;;;;;;5047214;28;20247;-60
2023/07/11 07:43:23;;;;;;;2.78;2.67;;;;;;;;;;5064642;28;20751;-61
2023/07/11 07:45:50;;;;;;;2.38;2.20;;;;;;;;;;5066495;28;20199;-60
2023/07/11 07:48:18;;;;;;;3.25;3.05;;;;;;;;;;5060046;28;20231;-61
2023/07/11 07:50:45;;;;;;;2.90;2.47;;;;;;;;;;5066970;28;20412;-60
2023/07/11 07:53:13;;;;;;;3.60;2.63;;;;;;;;;;5067346;28;20206;-60
2023/07/11 07:55:40;;;;;;;3.97;2.55;;;;;;;;;;5067399;28;20215;-61
2023/07/11 07:58:10;;;;;;;2.50;2.40;;;;;;;;;;5060158;28;20713;-60
2023/07/11 08:00:37;;;;;;;2.83;2.60;;;;;;;;;;5059005;28;20208;-60
2023/07/11 08:03:04;;;;;;;2.97;2.78;;;;;;;;;;5054597;28;20215;-61
2023/07/11 08:05:32;;;;;;;2.90;2.67;;;;;;;;;;5063657;28;20292;-62
2023/07/11 08:07:59;;;;;;;2.67;2.58;;;;;;;;;;5058908;28;20234;-62
2023/07/11 08:10:26;;;;;;;2.95;2.75;;;;;;;;;;5056558;28;20563;-62
2023/07/11 08:12:53;;;;;;;2.88;2.67;;;;;;;;;;5067044;28;20219;-62
2023/07/11 08:15:22;;;;;;;2.67;2.58;;;;;;;;;;5066610;28;20207;-63
2023/07/11 08:17:49;;;;;;;3.95;2.50;;;;;;;;;;5064033;28;20704;-62
2023/07/11 08:20:16;;;;;;;2.20;2.10;;;;;;;;;;5062056;28;20203;-62
2023/07/11 08:22:44;;;;;;;3.42;2.70;;;;;;;;;;5067870;28;20206;-62
2023/07/11 08:25:11;;;;;;;2.85;2.65;;;;;;;;;;5068031;28;20301;-61
2023/07/11 08:27:38;;;;;;;5.47;2.85;;;;;;;;;;5065377;28;20388;-61
2023/07/11 08:30:06;;;;;;;3.15;1.98;;;;;;;;;;5059502;28;20195;-62
2023/07/11 08:32:34;;;;;;;2.45;2.30;;;;;;;;;;5047956;28;20665;-66
2023/07/11 08:35:02;;;;;;;2.40;2.30;;;;;;;;;;5049042;28;20211;-62
2023/07/11 08:37:29;;;;;;;2.60;2.50;;;;;;;;;;5050055;28;20210;-62
2023/07/11 08:39:56;;;;;;;2.83;2.65;;;;;;;;;;5047774;28;20302;-65
2023/07/11 08:42:27;;;;;;;2.75;2.65;;;;;;;;;;5057746;28;20234;-61
2023/07/11 08:44:57;;;;;;;3.85;2.30;;;;;;;;;;5061104;28;20199;-61
2023/07/11 08:47:28;;;;;;;2.50;2.40;;;;;;;;;;5048564;28;20777;-61
2023/07/11 08:50:00;;;;;;;2.60;2.40;;;;;;;;;;5051271;28;20203;-60
2023/07/11 08:52:29;;;;;;;2.83;2.63;;;;;;;;;;5066236;28;20306;-62
2023/07/11 08:54:59;;;;;;;2.45;2.30;;;;;;;;;;5066870;28;20210;-61
2023/07/11 08:57:29;;;;;;;3.10;2.20;;;;;;;;;;5066599;28;20629;-61
2023/07/11 08:59:58;;;;;;;2.22;2.20;;;;;;;;;;5064016;28;20310;-62
2023/07/11 09:02:34;;;;;;;2.42;2.30;;;;;;;;;;5058114;28;20248;-61
2023/07/11 09:05:04;;;;;;;2.80;2.60;;;;;;;;;;5043976;28;20345;-61
2023/07/11 09:07:36;;;;;;;2.55;2.30;;;;;;;;;;5046650;28;20255;-61
2023/07/11 09:10:03;;;;;;;2.40;2.30;;;;;;;;;;5046658;28;20218;-61
2023/07/11 09:12:37;;;;;;;2.85;2.65;;;;;;;;;;5046668;28;20211;-61
2023/07/11 09:15:08;;;;;;;2.33;2.22;;;;;;;;;;5044736;28;20253;-61
2023/07/11 09:17:43;;;;;;;2.22;2.13;;;;;;;;;;5063093;28;20207;-61
2023/07/11 09:20:17;;;;;;;2.40;2.30;;;;;;;;;;5043395;28;20264;-61
2023/07/11 09:22:49;;;;;;;2.60;2.40;;;;;;;;;;5051729;28;20226;-61
2023/07/11 09:25:19;;;;;;;2.35;2.25;;;;;;;;;;5057452;28;20245;-61
2023/07/11 09:27:48;;;;;;;2.75;2.55;;;;;;;;;;5066777;28;20268;-62
2023/07/11 09:30:17;;;;;;;2.65;2.45;;;;;;;;;;5063498;28;20248;-61
2023/07/11 09:32:44;;;;;;;2.60;2.50;;;;;;;;;;5066801;28;20206;-61
2023/07/11 09:35:22;;;;;;;2.78;2.58;;;;;;;;;;5063224;28;20218;-61
2023/07/11 09:37:51;;;;;;;2.58;2.47;;;;;;;;;;5060754;28;20210;-61
2023/07/11 09:40:21;;;;;;;2.65;2.55;;;;;;;;;;5049526;28;20209;-61
2023/07/11 09:42:49;;;;;;;2.72;2.53;;;;;;;;;;5062883;28;20721;-61
2023/07/11 09:45:17;;;;;;;2.80;2.70;;;;;;;;;;5053090;28;20213;-61
2023/07/11 09:47:48;;;;;;;3.03;2.92;;;;;;;;;;5046485;28;20210;-62
2023/07/11 09:50:27;;;;;;;3.00;2.80;;;;;;;;;;5050758;28;20199;-61
2023/07/11 09:52:55;;;;;;;2.30;2.20;;;;;;;;;;5052950;28;20209;-61
2023/07/11 09:55:28;;;;;;;2.72;2.63;;;;;;;;;;5048180;28;20681;-61
2023/07/11 09:57:55;;;;;;;2.20;2.10;;;;;;;;;;5045754;28;20692;-61
2023/07/11 10:00:22;;;;;;;2.63;2.53;;;;;;;;;;5065617;28;20214;-60
2023/07/11 10:02:49;;;;;;;2.45;2.35;;;;;;;;;;5062177;28;20217;-60
2023/07/11 10:05:17;;;;;;;3.33;2.28;;;;;;;;;;5065114;28;20242;-60
2023/07/11 10:07:47;;;;;;;2.60;2.40;;;;;;;;;;5065403;28;20240;-59
2023/07/11 10:10:15;;;;;;;2.25;2.15;;;;;;;;;;5065068;28;20222;-60
2023/07/11 10:12:43;;;;;;;2.70;2.50;;;;;;;;;;5065062;28;20214;-60
2023/07/11 10:15:15;;;;;;;4.68;2.63;;;;;;;;;;5049368;28;20617;-61
2023/07/11 10:17:43;;;;;;;2.58;2.38;;;;;;;;;;5047446;28;20207;-59
2023/07/11 10:20:15;;;;;;;3.05;2.72;;;;;;;;;;5046226;28;20203;-59
2023/07/11 10:22:43;;;;;;;2.90;2.78;;;;;;;;;;5054877;28;20241;-58
2023/07/11 10:25:18;;;;;;;2.72;2.63;;;;;;;;;;5053733;28;20203;-64
2023/07/11 10:27:46;;;;;;;2.53;2.42;;;;;;;;;;5045077;28;20226;-65
2023/07/11 10:30:17;;;;;;;2.83;2.63;;;;;;;;;;5061895;28;20234;-61
2023/07/11 10:32:46;;;;;;;2.63;2.50;;;;;;;;;;5056942;28;20223;-61
2023/07/11 10:35:16;;;;;;;2.50;2.40;;;;;;;;;;5048310;28;20210;-61
2023/07/11 10:37:44;;;;;;;2.20;2.10;;;;;;;;;;5048745;28;20681;-61
2023/07/11 10:40:13;;;;;;;2.92;2.83;;;;;;;;;;5054288;28;20198;-61
2023/07/11 10:42:45;;;;;;;3.78;2.40;;;;;;;;;;5070004;28;20605;-61
2023/07/11 10:45:14;;;;;;;4.15;2.90;;;;;;;;;;5068048;28;20210;-61
2023/07/11 10:47:45;;;;;;;2.80;2.65;;;;;;;;;;5069359;28;20486;-61
2023/07/11 10:50:23;;;;;;;2.30;2.20;;;;;;;;;;5053405;28;20284;-60
2023/07/11 10:52:52;;;;;;;2.78;2.58;;;;;;;;;;5049551;28;20207;-60
2023/07/11 10:55:20;;;;;;;3.00;2.80;;;;;;;;;;5061809;28;20211;-60
2023/07/11 10:57:50;;;;;;;2.92;2.72;;;;;;;;;;5048863;28;20207;-59
2023/07/11 11:00:17;;;;;;;2.47;2.42;;;;;;;;;;5056752;28;20764;-59
2023/07/11 11:02:51;;;;;;;6.15;2.63;;;;;;;;;;5069136;28;20222;-68
2023/07/11 11:05:23;;;;;;;3.42;2.75;;;;;;;;;;5064106;28;20234;-60
2023/07/11 11:07:52;;;;;;;3.17;2.45;;;;;;;;;;5048388;28;20217;-60
2023/07/11 11:10:28;;;;;;;4.43;2.60;;;;;;;;;;5052844;28;20704;-60
2023/07/11 11:13:02;;;;;;;2.40;2.25;;;;;;;;;;5058790;28;20221;-61
2023/07/11 11:15:37;;;;;;;3.45;3.00;;;;;;;;;;5049638;28;20207;-62
2023/07/11 11:18:11;;;;;;;2.88;2.70;;;;;;;;;;5050205;28;20229;-61
2023/07/11 11:20:45;;;;;;;3.20;2.90;;;;;;;;;;5047102;28;20203;-59
2023/07/11 11:23:24;;;;;;;3.22;3.03;;;;;;;;;;5057778;28;20210;-59
2023/07/11 11:25:57;;;;;;;3.20;3.00;;;;;;;;;;5048824;28;20206;-61
2023/07/11 11:28:31;;;;;;;4.70;2.58;;;;;;;;;;5048817;28;20218;-64
2023/07/11 11:31:04;;;;;;;4.03;3.55;;;;;;;;;;5048387;28;20211;-60
2023/07/11 11:33:38;;;;;;;3.35;3.10;;;;;;;;;;5063272;28;20618;-67
2023/07/11 11:36:09;;;;;;;3.13;2.92;;;;;;;;;;5052217;28;20203;-62
2023/07/11 11:38:51;;;;;;;3.30;3.03;;;;;;;;;;5060374;28;20281;-61
2023/07/11 11:41:20;;;;;;;3.10;2.90;;;;;;;;;;5044689;28;20203;-64
2023/07/11 11:43:50;;;;;;;3.80;3.58;;;;;;;;;;5060368;28;20226;-62
2023/07/11 11:46:18;;;;;;;3.70;3.50;;;;;;;;;;5060531;28;20218;-62
2023/07/11 11:48:46;;;;;;;3.50;3.30;;;;;;;;;;5060976;28;20207;-64
2023/07/11 11:51:15;;;;;;;5.55;3.70;;;;;;;;;;5065904;28;20668;-62
2023/07/11 11:53:46;;;;;;;3.38;3.28;;;;;;;;;;5067972;28;20214;-63
2023/07/11 11:56:14;;;;;;;4.18;3.88;;;;;;;;;;5068429;28;20272;-64
2023/07/11 11:58:51;;;;;;;3.15;2.95;;;;;;;;;;5067065;28;20279;-64
2023/07/11 12:01:32;;;;;;;4.10;3.85;;;;;;;;;;5063695;28;20206;-64
2023/07/11 12:03:59;;;;;;;4.00;3.80;;;;;;;;;;5059372;28;20207;-64
2023/07/11 12:06:28;;;;;;;4.28;3.90;;;;;;;;;;5061475;28;20238;-64
2023/07/11 12:09:24;;;;;;;3.72;3.38;;;;;;;;;;5056578;28;20230;-63
2023/07/11 12:12:04;;;;;;;3.33;3.20;;;;;;;;;;5048836;28;20203;-64
2023/07/11 12:14:37;;;;;;;5.63;3.65;;;;;;;;;;5047774;28;20624;-64
2023/07/11 12:17:04;;;;;;;3.40;3.20;;;;;;;;;;5047281;28;20631;-64
2023/07/11 12:19:34;;;;;;;3.47;3.28;;;;;;;;;;5053470;28;20332;-64
2023/07/11 12:22:04;;;;;;;4.55;3.55;;;;;;;;;;5048795;28;20242;-64
2023/07/11 12:24:45;;;;;;;3.80;3.53;;;;;;;;;;5054704;28;20261;-64
2023/07/11 12:27:26;;;;;;;3.88;3.67;;;;;;;;;;5050036;28;20206;-64
2023/07/11 12:29:55;;;;;;;4.40;4.00;;;;;;;;;;5028881;28;20245;-64
2023/07/11 12:32:41;;;;;;;4.03;3.83;;;;;;;;;;5066939;28;20309;-64
2023/07/11 12:35:13;;;;;;;3.35;3.25;;;;;;;;;;5063825;28;20206;-64
2023/07/11 12:37:46;;;;;;;5.30;4.80;;;;;;;;;;5066420;28;20301;-64
2023/07/11 12:40:16;;;;;;;6.28;5.60;;;;;;;;;;5066033;28;20203;-64
2023/07/11 12:42:46;;;;;;;5.43;5.03;;;;;;;;;;5059036;28;20284;-64
2023/07/11 12:45:16;;;;;;;4.70;4.30;;;;;;;;;;5065310;28;20209;-63
2023/07/11 12:47:43;;;;;;;4.30;3.95;;;;;;;;;;5062298;28;20202;-64
2023/07/11 12:50:16;;;;;;;4.25;3.95;;;;;;;;;;5050320;28;20222;-64
2023/07/11 12:52:43;;;;;;;5.10;4.70;;;;;;;;;;5061688;28;20227;-64
2023/07/11 12:55:12;;;;;;;3.95;3.75;;;;;;;;;;5052278;28;20203;-64
2023/07/11 12:57:45;;;;;;;4.40;4.10;;;;;;;;;;5061039;28;20260;-64
2023/07/11 13:00:21;;;;;;;4.28;3.97;;;;;;;;;;5044271;28;20211;-64
2023/07/11 13:02:49;;;;;;;3.60;3.40;;;;;;;;;;5057869;28;20316;-65
2023/07/11 13:05:16;;;;;;;3.60;3.40;;;;;;;;;;5053406;28;20313;-65
2023/07/11 13:07:44;;;;;;;5.35;3.53;;;;;;;;;;5064279;28;20233;-65
2023/07/11 13:10:18;;;;;;;4.03;3.72;;;;;;;;;;5049098;28;20716;-65
2023/07/11 13:12:45;;;;;;;3.70;3.40;;;;;;;;;;5063675;28;20630;-63
2023/07/11 13:15:14;;;;;;;3.65;3.45;;;;;;;;;;5050489;28;20356;-63
2023/07/11 13:17:44;;;;;;;3.90;3.70;;;;;;;;;;5056832;28;20213;-63
2023/07/11 13:20:17;;;;;;;4.05;3.78;;;;;;;;;;5045093;28;20245;-65
2023/07/11 13:22:45;;;;;;;3.90;3.60;;;;;;;;;;5061795;28;20213;-64
2023/07/11 13:25:15;;;;;;;4.65;3.92;;;;;;;;;;5062010;28;20914;-60
2023/07/11 13:27:43;;;;;;;8.02;3.75;;;;;;;;;;5050451;28;20235;-59
2023/07/11 13:30:21;;;;;;;4.57;4.18;;;;;;;;;;5056000;28;20241;-60
2023/07/11 13:32:53;;;;;;;4.05;3.80;;;;;;;;;;5065443;28;20609;-60
2023/07/11 13:35:20;;;;;;;4.80;3.97;;;;;;;;;;5052626;28;20803;-60
2023/07/11 13:37:48;;;;;;;4.30;3.90;;;;;;;;;;5046894;28;20218;-62
2023/07/11 13:40:34;;;;;;;4.80;4.15;;;;;;;;;;5058014;28;20213;-62
2023/07/11 13:43:02;;;;;;;4.18;3.78;;;;;;;;;;5065205;28;20645;-62
2023/07/11 13:45:29;;;;;;;3.83;3.53;;;;;;;;;;5058417;28;20232;-62
2023/07/11 13:47:57;;;;;;;3.55;3.35;;;;;;;;;;5064409;28;20202;-62
2023/07/11 13:50:26;;;;;;;5.05;3.65;;;;;;;;;;5065085;28;20319;-61
2023/07/11 13:52:54;;;;;;;4.47;3.58;;;;;;;;;;5056678;28;20549;-59
2023/07/11 13:55:22;;;;;;;4.57;4.20;;;;;;;;;;5046738;28;20329;-59
2023/07/11 13:57:58;;;;;;;5.03;4.05;;;;;;;;;;5063201;28;20202;-59
2023/07/11 14:00:25;;;;;;;3.83;3.63;;;;;;;;;;5053769;28;20202;-60
2023/07/11 14:02:52;;;;;;;4.22;3.92;;;;;;;;;;5045625;28;20222;-59
2023/07/11 14:05:22;;;;;;;4.30;3.95;;;;;;;;;;5065042;28;20611;-60
2023/07/11 14:07:50;;;;;;;4.38;3.97;;;;;;;;;;5046987;28;20210;-60
2023/07/11 14:10:17;;;;;;;4.20;3.72;;;;;;;;;;5047260;28;20237;-59
2023/07/11 14:12:44;;;;;;;4.07;3.78;;;;;;;;;;5046466;28;20203;-59
2023/07/11 14:15:22;;;;;;;4.25;3.95;;;;;;;;;;5049185;28;20215;-60
2023/07/11 14:17:49;;;;;;;4.13;3.92;;;;;;;;;;5052933;28;20207;-59
2023/07/11 14:20:17;;;;;;;4.15;3.80;;;;;;;;;;5055655;28;20656;-62
2023/07/11 14:22:46;;;;;;;3.58;3.38;;;;;;;;;;5060676;28;20248;-61
2023/07/11 14:25:14;;;;;;;3.80;3.60;;;;;;;;;;5064955;28;20205;-62
2023/07/11 14:27:41;;;;;;;4.00;3.80;;;;;;;;;;5055259;28;20290;-62
2023/07/11 14:30:09;;;;;;;4.22;3.85;;;;;;;;;;5053225;28;20233;-69
2023/07/11 14:32:36;;;;;;;3.63;3.42;;;;;;;;;;5050644;28;20263;-60
2023/07/11 14:35:03;;;;;;;4.25;3.67;;;;;;;;;;5058797;28;20195;-59
2023/07/11 14:37:30;;;;;;;4.47;4.18;;;;;;;;;;5050048;28;20720;-59
2023/07/11 14:39:59;;;;;;;4.00;3.70;;;;;;;;;;5051013;28;20211;-60
2023/07/11 14:42:27;;;;;;;4.88;3.50;;;;;;;;;;5051974;28;20227;-59
2023/07/11 14:44:55;;;;;;;3.90;3.70;;;;;;;;;;5056713;28;20198;-59
2023/07/11 14:47:22;;;;;;;3.45;3.35;;;;;;;;;;5069330;28;20214;-60
2023/07/11 14:49:49;;;;;;;5.13;3.25;;;;;;;;;;5067276;28;20226;-60
2023/07/11 14:52:24;;;;;;;5.13;3.92;;;;;;;;;;5065509;28;20576;-59